sensor_id;sensor_type;location;lat;lon;timestamp;pressure;altitude;pressure_sealevel;temperature;humidity
85922;BME280;76459;41.484;22.090;2024-02-26T00:02:23;99441.50;;;12.50;77.43
85922;BME280;76459;41.484;22.090;2024-02-26T00:04:49;99435.34;;;12.53;77.90
85922;BME280;76459;41.484;22.090;2024-02-26T00:07:16;99438.28;;;12.56;78.71
85922;BME280;76459;41.484;22.090;2024-02-26T00:09:41;99441.91;;;12.57;78.65
85922;BME280;76459;41.484;22.090;2024-02-26T00:12:07;99440.78;;;12.58;79.38
85922;BME280;76459;41.484;22.090;2024-02-26T00:14:33;99433.00;;;12.60;79.04
85922;BME280;76459;41.484;22.090;2024-02-26T00:16:59;99430.84;;;12.57;78.90
85922;BME280;76459;41.484;22.090;2024-02-26T00:19:25;99422.75;;;12.60;78.59
85922;BME280;76459;41.484;22.090;2024-02-26T00:21:51;99427.66;;;12.63;77.95
85922;BME280;76459;41.484;22.090;2024-02-26T00:24:16;99427.31;;;12.65;77.62
85922;BME280;76459;41.484;22.090;2024-02-26T00:26:42;99418.53;;;12.63;77.29
85922;BME280;76459;41.484;22.090;2024-02-26T00:29:07;99425.69;;;12.64;77.03
85922;BME280;76459;41.484;22.090;2024-02-26T00:31:33;99422.63;;;12.65;76.92
85922;BME280;76459;41.484;22.090;2024-02-26T00:33:59;99424.06;;;12.63;76.72
85922;BME280;76459;41.484;22.090;2024-02-26T00:36:24;99426.50;;;12.64;76.83
85922;BME280;76459;41.484;22.090;2024-02-26T00:38:50;99425.91;;;12.67;77.03
85922;BME280;76459;41.484;22.090;2024-02-26T00:41:19;99424.25;;;12.66;77.09
85922;BME280;76459;41.484;22.090;2024-02-26T00:43:45;99416.72;;;12.58;77.79
85922;BME280;76459;41.484;22.090;2024-02-26T00:46:11;99428.16;;;12.65;77.90
85922;BME280;76459;41.484;22.090;2024-02-26T00:48:36;99427.84;;;12.67;77.60
85922;BME280;76459;41.484;22.090;2024-02-26T00:51:03;99430.63;;;12.67;76.86
85922;BME280;76459;41.484;22.090;2024-02-26T00:53:31;99416.91;;;12.62;77.02
85922;BME280;76459;41.484;22.090;2024-02-26T00:55:57;99426.41;;;12.69;76.96
85922;BME280;76459;41.484;22.090;2024-02-26T00:58:25;99421.38;;;12.72;77.17
85922;BME280;76459;41.484;22.090;2024-02-26T01:00:50;99410.81;;;12.74;77.29
85922;BME280;76459;41.484;22.090;2024-02-26T01:03:17;99418.81;;;12.75;77.17
85922;BME280;76459;41.484;22.090;2024-02-26T01:05:43;99411.31;;;12.76;77.08
85922;BME280;76459;41.484;22.090;2024-02-26T01:08:09;99408.88;;;12.74;77.06
85922;BME280;76459;41.484;22.090;2024-02-26T01:10:35;99406.44;;;12.73;77.35
85922;BME280;76459;41.484;22.090;2024-02-26T01:13:01;99406.25;;;12.69;77.08
85922;BME280;76459;41.484;22.090;2024-02-26T01:15:27;99406.03;;;12.65;77.08
85922;BME280;76459;41.484;22.090;2024-02-26T01:17:53;99395.78;;;12.66;77.41
85922;BME280;76459;41.484;22.090;2024-02-26T01:20:18;99397.56;;;12.62;77.46
85922;BME280;76459;41.484;22.090;2024-02-26T01:22:44;99400.81;;;12.64;77.43
85922;BME280;76459;41.484;22.090;2024-02-26T01:25:10;99381.94;;;12.57;77.88
85922;BME280;76459;41.484;22.090;2024-02-26T01:27:39;99395.63;;;12.62;77.85
85922;BME280;76459;41.484;22.090;2024-02-26T01:30:06;99393.91;;;12.53;78.18
85922;BME280;76459;41.484;22.090;2024-02-26T01:32:32;99384.84;;;12.38;78.47
85922;BME280;76459;41.484;22.090;2024-02-26T01:34:58;99391.91;;;12.31;78.95
85922;BME280;76459;41.484;22.090;2024-02-26T01:37:23;99393.16;;;12.25;79.17
85922;BME280;76459;41.484;22.090;2024-02-26T01:39:49;99398.97;;;12.23;78.98
85922;BME280;76459;41.484;22.090;2024-02-26T01:42:15;99395.09;;;12.24;79.21
85922;BME280;76459;41.484;22.090;2024-02-26T01:44:40;99386.00;;;12.24;79.16
85922;BME280;76459;41.484;22.090;2024-02-26T01:47:11;99388.34;;;12.30;79.03
85922;BME280;76459;41.484;22.090;2024-02-26T01:49:37;99381.50;;;12.28;79.19
85922;BME280;76459;41.484;22.090;2024-02-26T01:52:06;99387.72;;;12.33;78.85
85922;BME280;76459;41.484;22.090;2024-02-26T01:54:35;99389.34;;;12.34;78.94
85922;BME280;76459;41.484;22.090;2024-02-26T01:57:03;99383.81;;;12.34;79.00
85922;BME280;76459;41.484;22.090;2024-02-26T01:59:29;99373.91;;;12.33;78.97
85922;BME280;76459;41.484;22.090;2024-02-26T02:01:58;99371.94;;;12.34;78.88
85922;BME280;76459;41.484;22.090;2024-02-26T02:04:27;99375.22;;;12.36;78.58
85922;BME280;76459;41.484;22.090;2024-02-26T02:06:53;99364.47;;;12.34;78.61
85922;BME280;76459;41.484;22.090;2024-02-26T02:09:19;99366.44;;;12.34;78.29
85922;BME280;76459;41.484;22.090;2024-02-26T02:11:46;99360.22;;;12.28;78.34
85922;BME280;76459;41.484;22.090;2024-02-26T02:14:14;99365.75;;;12.28;78.08
85922;BME280;76459;41.484;22.090;2024-02-26T02:16:40;99360.53;;;12.27;78.20
85922;BME280;76459;41.484;22.090;2024-02-26T02:19:05;99361.75;;;12.21;77.73
85922;BME280;76459;41.484;22.090;2024-02-26T02:21:31;99345.59;;;12.14;78.17
85922;BME280;76459;41.484;22.090;2024-02-26T02:23:57;99352.56;;;12.11;78.05
85922;BME280;76459;41.484;22.090;2024-02-26T02:26:22;99346.66;;;12.04;77.96
85922;BME280;76459;41.484;22.090;2024-02-26T02:28:48;99345.84;;;12.04;78.19
85922;BME280;76459;41.484;22.090;2024-02-26T02:31:15;99341.44;;;12.03;78.62
85922;BME280;76459;41.484;22.090;2024-02-26T02:33:41;99341.44;;;12.03;78.62
85922;BME280;76459;41.484;22.090;2024-02-26T02:36:07;99340.44;;;11.99;78.83
85922;BME280;76459;41.484;22.090;2024-02-26T02:38:36;99334.69;;;11.95;78.76
85922;BME280;76459;41.484;22.090;2024-02-26T02:41:02;99342.38;;;11.98;79.05
85922;BME280;76459;41.484;22.090;2024-02-26T02:43:27;99332.38;;;11.89;79.18
85922;BME280;76459;41.484;22.090;2024-02-26T02:45:53;99339.22;;;11.91;79.54
85922;BME280;76459;41.484;22.090;2024-02-26T02:48:19;99337.41;;;11.87;79.18
85922;BME280;76459;41.484;22.090;2024-02-26T02:50:45;99342.19;;;11.81;79.42
85922;BME280;76459;41.484;22.090;2024-02-26T02:53:10;99339.53;;;11.76;79.69
85922;BME280;76459;41.484;22.090;2024-02-26T02:55:36;99335.63;;;11.77;79.71
85922;BME280;76459;41.484;22.090;2024-02-26T02:58:02;99344.63;;;11.82;79.49
85922;BME280;76459;41.484;22.090;2024-02-26T03:00:27;99347.91;;;11.85;79.65
85922;BME280;76459;41.484;22.090;2024-02-26T03:02:53;99346.38;;;11.78;79.77
85922;BME280;76459;41.484;22.090;2024-02-26T03:05:18;99350.25;;;11.77;79.84
85922;BME280;76459;41.484;22.090;2024-02-26T03:07:44;99348.63;;;11.76;79.85
85922;BME280;76459;41.484;22.090;2024-02-26T03:10:10;99341.97;;;11.77;79.73
85922;BME280;76459;41.484;22.090;2024-02-26T03:12:35;99338.47;;;11.72;79.95
85922;BME280;76459;41.484;22.090;2024-02-26T03:15:01;99330.53;;;11.70;80.27
85922;BME280;76459;41.484;22.090;2024-02-26T03:17:29;99333.47;;;11.74;79.89
85922;BME280;76459;41.484;22.090;2024-02-26T03:19:55;99337.34;;;11.73;79.72
85922;BME280;76459;41.484;22.090;2024-02-26T03:22:21;99333.19;;;11.75;79.36
85922;BME280;76459;41.484;22.090;2024-02-26T03:24:47;99338.47;;;11.72;79.10
85922;BME280;76459;41.484;22.090;2024-02-26T03:27:13;99342.38;;;11.71;78.98
85922;BME280;76459;41.484;22.090;2024-02-26T03:29:38;99336.44;;;11.64;79.08
85922;BME280;76459;41.484;22.090;2024-02-26T03:32:07;99343.31;;;11.66;78.93
85922;BME280;76459;41.484;22.090;2024-02-26T03:34:33;99344.13;;;11.67;79.24
85922;BME280;76459;41.484;22.090;2024-02-26T03:37:05;99342.69;;;11.69;79.07
85922;BME280;76459;41.484;22.090;2024-02-26T03:39:31;99337.47;;;11.68;79.29
85922;BME280;76459;41.484;22.090;2024-02-26T03:41:57;99338.28;;;11.68;79.32
85922;BME280;76459;41.484;22.090;2024-02-26T03:44:22;99337.97;;;11.70;79.44
85922;BME280;76459;41.484;22.090;2024-02-26T03:46:48;99332.97;;;11.72;79.00
85922;BME280;76459;41.484;22.090;2024-02-26T03:49:14;99332.97;;;11.72;78.61
85922;BME280;76459;41.484;22.090;2024-02-26T03:51:39;99328.38;;;11.67;78.83
85922;BME280;76459;41.484;22.090;2024-02-26T03:54:05;99334.81;;;11.63;78.98
85922;BME280;76459;41.484;22.090;2024-02-26T03:56:30;99346.16;;;11.61;78.87
85922;BME280;76459;41.484;22.090;2024-02-26T03:58:56;99350.03;;;11.60;78.74
85922;BME280;76459;41.484;22.090;2024-02-26T04:01:22;99334.41;;;11.56;79.13
85922;BME280;76459;41.484;22.090;2024-02-26T04:03:47;99339.63;;;11.57;79.32
85922;BME280;76459;41.484;22.090;2024-02-26T04:06:13;99351.97;;;11.60;78.91
85922;BME280;76459;41.484;22.090;2024-02-26T04:08:44;99341.88;;;11.55;78.69
85922;BME280;76459;41.484;22.090;2024-02-26T04:11:10;99344.63;;;11.55;78.75
85922;BME280;76459;41.484;22.090;2024-02-26T04:13:36;99351.78;;;11.56;78.96
85922;BME280;76459;41.484;22.090;2024-02-26T04:16:05;99347.91;;;11.57;78.89
85922;BME280;76459;41.484;22.090;2024-02-26T04:18:32;99347.41;;;11.55;78.67
85922;BME280;76459;41.484;22.090;2024-02-26T04:20:58;99347.47;;;11.50;78.80
85922;BME280;76459;41.484;22.090;2024-02-26T04:23:24;99348.00;;;11.52;78.62
85922;BME280;76459;41.484;22.090;2024-02-26T04:25:50;99349.34;;;11.54;78.69
85922;BME280;76459;41.484;22.090;2024-02-26T04:28:15;99347.09;;;11.57;78.57
85922;BME280;76459;41.484;22.090;2024-02-26T04:30:41;99346.16;;;11.61;78.58
85922;BME280;76459;41.484;22.090;2024-02-26T04:33:07;99336.94;;;11.52;78.54
85922;BME280;76459;41.484;22.090;2024-02-26T04:35:33;99360.56;;;11.58;78.73
85922;BME280;76459;41.484;22.090;2024-02-26T04:38:00;99350.25;;;11.50;79.32
85922;BME280;76459;41.484;22.090;2024-02-26T04:40:26;99360.66;;;11.53;79.02
85922;BME280;76459;41.484;22.090;2024-02-26T04:42:52;99353.94;;;11.45;78.68
85922;BME280;76459;41.484;22.090;2024-02-26T04:45:17;99354.31;;;11.39;78.69
85922;BME280;76459;41.484;22.090;2024-02-26T04:47:43;99358.28;;;11.33;78.95
85922;BME280;76459;41.484;22.090;2024-02-26T04:50:09;99352.78;;;11.33;79.08
85922;BME280;76459;41.484;22.090;2024-02-26T04:52:34;99347.47;;;11.36;78.56
85922;BME280;76459;41.484;22.090;2024-02-26T04:55:01;99346.88;;;11.39;78.48
85922;BME280;76459;41.484;22.090;2024-02-26T04:57:28;99344.09;;;11.39;79.06
85922;BME280;76459;41.484;22.090;2024-02-26T04:59:53;99348.81;;;11.39;78.94
85922;BME280;76459;41.484;22.090;2024-02-26T05:02:19;99364.34;;;11.35;79.11
85922;BME280;76459;41.484;22.090;2024-02-26T05:04:44;99351.66;;;11.34;78.84
85922;BME280;76459;41.484;22.090;2024-02-26T05:07:10;99349.94;;;11.38;79.19
85922;BME280;76459;41.484;22.090;2024-02-26T05:09:35;99350.44;;;11.40;78.91
85922;BME280;76459;41.484;22.090;2024-02-26T05:12:01;99348.69;;;11.44;79.03
85922;BME280;76459;41.484;22.090;2024-02-26T05:14:27;99354.31;;;11.39;79.11
85922;BME280;76459;41.484;22.090;2024-02-26T05:16:53;99349.94;;;11.38;79.24
85922;BME280;76459;41.484;22.090;2024-02-26T05:19:18;99348.28;;;11.37;79.13
85922;BME280;76459;41.484;22.090;2024-02-26T05:21:44;99349.19;;;11.32;79.42
85922;BME280;76459;41.484;22.090;2024-02-26T05:24:10;99352.38;;;11.25;79.20
85922;BME280;76459;41.484;22.090;2024-02-26T05:26:35;99359.91;;;11.20;79.44
85922;BME280;76459;41.484;22.090;2024-02-26T05:29:01;99358.88;;;11.16;79.47
85922;BME280;76459;41.484;22.090;2024-02-26T05:31:27;99366.94;;;11.12;79.62
85922;BME280;76459;41.484;22.090;2024-02-26T05:33:54;99370.31;;;11.09;79.92
85922;BME280;76459;41.484;22.090;2024-02-26T05:36:23;99371.94;;;11.10;79.65
85922;BME280;76459;41.484;22.090;2024-02-26T05:38:49;99377.44;;;11.10;79.42
85922;BME280;76459;41.484;22.090;2024-02-26T05:41:18;99375.19;;;11.12;79.80
85922;BME280;76459;41.484;22.090;2024-02-26T05:43:49;99388.41;;;11.15;79.89
85922;BME280;76459;41.484;22.090;2024-02-26T05:46:19;99385.03;;;11.18;79.65
85922;BME280;76459;41.484;22.090;2024-02-26T05:48:47;99388.59;;;11.19;79.62
85922;BME280;76459;41.484;22.090;2024-02-26T05:51:13;99391.34;;;11.19;79.76
85922;BME280;76459;41.484;22.090;2024-02-26T05:53:38;99379.31;;;11.15;79.91
85922;BME280;76459;41.484;22.090;2024-02-26T05:56:05;99392.38;;;11.23;79.74
85922;BME280;76459;41.484;22.090;2024-02-26T05:58:31;99392.59;;;11.27;79.98
85922;BME280;76459;41.484;22.090;2024-02-26T06:00:57;99392.69;;;11.21;79.79
85922;BME280;76459;41.484;22.090;2024-02-26T06:03:22;99402.91;;;11.21;80.29
85922;BME280;76459;41.484;22.090;2024-02-26T06:05:48;99395.75;;;11.20;80.31
85922;BME280;76459;41.484;22.090;2024-02-26T06:08:13;99412.41;;;11.29;79.93
85922;BME280;76459;41.484;22.090;2024-02-26T06:10:39;99410.69;;;11.33;80.16
85922;BME280;76459;41.484;22.090;2024-02-26T06:13:05;99418.06;;;11.37;79.44
85922;BME280;76459;41.484;22.090;2024-02-26T06:15:30;99407.47;;;11.44;79.58
85922;BME280;76459;41.484;22.090;2024-02-26T06:17:56;99417.44;;;11.54;79.82
85922;BME280;76459;41.484;22.090;2024-02-26T06:20:22;99408.16;;;11.64;79.62
85922;BME280;76459;41.484;22.090;2024-02-26T06:22:47;99416.38;;;11.69;79.42
85922;BME280;76459;41.484;22.090;2024-02-26T06:25:13;99429.16;;;11.78;79.07
85922;BME280;76459;41.484;22.090;2024-02-26T06:27:38;99428.75;;;11.85;78.86
85922;BME280;76459;41.484;22.090;2024-02-26T06:30:04;99429.19;;;11.92;78.31
85922;BME280;76459;41.484;22.090;2024-02-26T06:32:30;99424.38;;;11.98;78.68
85922;BME280;76459;41.484;22.090;2024-02-26T06:34:56;99426.53;;;12.01;78.35
85922;BME280;76459;41.484;22.090;2024-02-26T06:37:22;99435.81;;;12.05;78.37
85922;BME280;76459;41.484;22.090;2024-02-26T06:39:47;99437.16;;;12.07;78.54
85922;BME280;76459;41.484;22.090;2024-02-26T06:42:14;99437.97;;;12.08;78.31
85922;BME280;76459;41.484;22.090;2024-02-26T06:44:40;99434.72;;;12.06;78.09
85922;BME280;76459;41.484;22.090;2024-02-26T06:47:06;99435.63;;;12.01;78.17
85922;BME280;76459;41.484;22.090;2024-02-26T06:49:31;99434.81;;;12.01;78.21
85922;BME280;76459;41.484;22.090;2024-02-26T06:51:57;99439.50;;;12.00;78.53
85922;BME280;76459;41.484;22.090;2024-02-26T06:54:22;99431.31;;;11.95;78.47
85922;BME280;76459;41.484;22.090;2024-02-26T06:56:48;99446.34;;;12.03;78.38
85922;BME280;76459;41.484;22.090;2024-02-26T06:59:14;99432.16;;;11.96;78.79
85922;BME280;76459;41.484;22.090;2024-02-26T07:01:41;99438.06;;;12.03;78.87
85922;BME280;76459;41.484;22.090;2024-02-26T07:04:07;99448.09;;;11.99;79.12
85922;BME280;76459;41.484;22.090;2024-02-26T07:06:33;99440.63;;;11.99;78.92
85922;BME280;76459;41.484;22.090;2024-02-26T07:08:59;99441.94;;;12.02;79.02
85922;BME280;76459;41.484;22.090;2024-02-26T07:11:24;99436.31;;;11.93;79.20
85922;BME280;76459;41.484;22.090;2024-02-26T07:13:50;99439.59;;;11.95;79.38
85922;BME280;76459;41.484;22.090;2024-02-26T07:16:15;99429.69;;;11.80;79.13
85922;BME280;76459;41.484;22.090;2024-02-26T07:18:41;99442.78;;;11.89;79.53
85922;BME280;76459;41.484;22.090;2024-02-26T07:21:09;99440.22;;;11.92;79.75
85922;BME280;76459;41.484;22.090;2024-02-26T07:23:34;99447.06;;;11.95;79.02
85922;BME280;76459;41.484;22.090;2024-02-26T07:26:00;99437.38;;;11.97;79.08
85922;BME280;76459;41.484;22.090;2024-02-26T07:28:26;99435.94;;;12.00;79.45
85922;BME280;76459;41.484;22.090;2024-02-26T07:30:51;99444.22;;;12.00;79.87
85922;BME280;76459;41.484;22.090;2024-02-26T07:33:17;99443.00;;;12.06;79.22
85922;BME280;76459;41.484;22.090;2024-02-26T07:35:43;99446.75;;;12.10;79.28
85922;BME280;76459;41.484;22.090;2024-02-26T07:38:08;99444.00;;;12.10;79.26
85922;BME280;76459;41.484;22.090;2024-02-26T07:40:34;99441.34;;;12.19;79.14
85922;BME280;76459;41.484;22.090;2024-02-26T07:42:59;99440.19;;;12.33;78.61
85922;BME280;76459;41.484;22.090;2024-02-26T07:45:25;99445.31;;;12.40;78.03
85922;BME280;76459;41.484;22.090;2024-02-26T07:47:51;99448.16;;;12.49;77.60
85922;BME280;76459;41.484;22.090;2024-02-26T07:50:17;99431.09;;;12.47;77.49
85922;BME280;76459;41.484;22.090;2024-02-26T07:52:43;99439.34;;;12.60;77.07
85922;BME280;76459;41.484;22.090;2024-02-26T07:55:09;99436.75;;;12.64;77.79
85922;BME280;76459;41.484;22.090;2024-02-26T07:57:34;99427.72;;;12.72;77.58
85922;BME280;76459;41.484;22.090;2024-02-26T08:00:00;99437.00;;;12.90;77.30
85922;BME280;76459;41.484;22.090;2024-02-26T08:02:26;99432.13;;;12.95;77.30
85922;BME280;76459;41.484;22.090;2024-02-26T08:04:52;99430.06;;;13.01;76.98
85922;BME280;76459;41.484;22.090;2024-02-26T08:07:17;99434.53;;;13.11;76.92
85922;BME280;76459;41.484;22.090;2024-02-26T08:09:43;99446.19;;;13.21;76.29
85922;BME280;76459;41.484;22.090;2024-02-26T08:12:08;99446.38;;;13.25;76.45
85922;BME280;76459;41.484;22.090;2024-02-26T08:14:34;99444.63;;;13.29;75.26
85922;BME280;76459;41.484;22.090;2024-02-26T08:17:00;99439.72;;;13.26;75.98
85922;BME280;76459;41.484;22.090;2024-02-26T08:19:26;99448.50;;;13.28;75.84
85922;BME280;76459;41.484;22.090;2024-02-26T08:21:52;99444.81;;;13.33;75.06
85922;BME280;76459;41.484;22.090;2024-02-26T08:24:18;99443.56;;;13.39;74.52
85922;BME280;76459;41.484;22.090;2024-02-26T08:26:43;99443.72;;;13.42;74.09
85922;BME280;76459;41.484;22.090;2024-02-26T08:29:09;99438.38;;;13.46;74.15
85922;BME280;76459;41.484;22.090;2024-02-26T08:31:35;99444.06;;;13.41;74.03
85922;BME280;76459;41.484;22.090;2024-02-26T08:34:03;99438.53;;;13.41;73.96
85922;BME280;76459;41.484;22.090;2024-02-26T08:36:31;99439.34;;;13.41;73.98
85922;BME280;76459;41.484;22.090;2024-02-26T08:38:57;99447.00;;;13.44;74.14
85922;BME280;76459;41.484;22.090;2024-02-26T08:41:23;99443.63;;;13.56;73.86
85922;BME280;76459;41.484;22.090;2024-02-26T08:43:48;99446.09;;;13.58;72.78
85922;BME280;76459;41.484;22.090;2024-02-26T08:46:14;99436.03;;;13.62;73.28
85922;BME280;76459;41.484;22.090;2024-02-26T08:48:40;99444.06;;;13.72;73.47
85922;BME280;76459;41.484;22.090;2024-02-26T08:51:06;99448.81;;;13.80;72.72
85922;BME280;76459;41.484;22.090;2024-02-26T08:53:32;99433.53;;;13.82;72.09
85922;BME280;76459;41.484;22.090;2024-02-26T08:55:58;99440.91;;;13.96;71.87
85922;BME280;76459;41.484;22.090;2024-02-26T08:58:24;99438.28;;;13.99;71.55
85922;BME280;76459;41.484;22.090;2024-02-26T09:00:50;99443.06;;;14.07;71.52
85922;BME280;76459;41.484;22.090;2024-02-26T09:03:16;99442.09;;;14.12;71.39
85922;BME280;76459;41.484;22.090;2024-02-26T09:05:42;99437.56;;;14.25;71.18
85922;BME280;76459;41.484;22.090;2024-02-26T09:08:07;99428.97;;;14.35;70.68
85922;BME280;76459;41.484;22.090;2024-02-26T09:10:33;99424.72;;;14.37;71.67
85922;BME280;76459;41.484;22.090;2024-02-26T09:12:59;99423.63;;;14.47;71.01
85922;BME280;76459;41.484;22.090;2024-02-26T09:15:24;99420.72;;;14.52;69.98
85922;BME280;76459;41.484;22.090;2024-02-26T09:17:50;99425.44;;;14.60;69.90
85922;BME280;76459;41.484;22.090;2024-02-26T09:20:17;99427.72;;;14.67;69.70
85922;BME280;76459;41.484;22.090;2024-02-26T09:22:46;99421.38;;;14.75;69.54
85922;BME280;76459;41.484;22.090;2024-02-26T09:25:12;99418.63;;;14.84;68.96
85922;BME280;76459;41.484;22.090;2024-02-26T09:27:38;99409.97;;;14.85;68.78
85922;BME280;76459;41.484;22.090;2024-02-26T09:30:04;99405.88;;;15.00;68.74
85922;BME280;76459;41.484;22.090;2024-02-26T09:32:30;99415.81;;;15.18;69.00
85922;BME280;76459;41.484;22.090;2024-02-26T09:34:56;99414.78;;;15.40;68.59
85922;BME280;76459;41.484;22.090;2024-02-26T09:37:21;99414.09;;;15.61;68.05
85922;BME280;76459;41.484;22.090;2024-02-26T09:39:47;99407.81;;;15.81;66.79
85922;BME280;76459;41.484;22.090;2024-02-26T09:42:13;99409.50;;;16.03;65.69
85922;BME280;76459;41.484;22.090;2024-02-26T09:44:40;99409.09;;;16.22;64.79
85922;BME280;76459;41.484;22.090;2024-02-26T09:47:10;99402.00;;;16.33;64.50
85922;BME280;76459;41.484;22.090;2024-02-26T09:49:37;99407.03;;;16.39;64.31
85922;BME280;76459;41.484;22.090;2024-02-26T09:52:04;99391.16;;;16.40;62.38
85922;BME280;76459;41.484;22.090;2024-02-26T09:54:31;99391.44;;;16.47;62.13
85922;BME280;76459;41.484;22.090;2024-02-26T09:57:00;99389.59;;;16.51;63.15
85922;BME280;76459;41.484;22.090;2024-02-26T09:59:39;99382.72;;;16.57;63.32
85922;BME280;76459;41.484;22.090;2024-02-26T10:02:09;99379.66;;;16.71;63.06
85922;BME280;76459;41.484;22.090;2024-02-26T10:04:36;99368.59;;;16.83;62.89
85922;BME280;76459;41.484;22.090;2024-02-26T10:07:04;99369.47;;;16.96;62.31
85922;BME280;76459;41.484;22.090;2024-02-26T10:09:31;99365.94;;;17.08;61.12
85922;BME280;76459;41.484;22.090;2024-02-26T10:11:57;99364.00;;;17.20;60.75
85922;BME280;76459;41.484;22.090;2024-02-26T10:14:23;99359.50;;;17.28;60.51
85922;BME280;76459;41.484;22.090;2024-02-26T10:16:50;99350.81;;;17.42;59.18
85922;BME280;76459;41.484;22.090;2024-02-26T10:19:25;99339.88;;;17.37;56.50
85922;BME280;76459;41.484;22.090;2024-02-26T10:22:01;99339.75;;;17.21;57.04
85922;BME280;76459;41.484;22.090;2024-02-26T10:24:29;99343.53;;;17.04;56.25
85922;BME280;76459;41.484;22.090;2024-02-26T10:26:55;99341.34;;;17.10;56.95
85922;BME280;76459;41.484;22.090;2024-02-26T10:29:24;99331.16;;;17.14;56.60
85922;BME280;76459;41.484;22.090;2024-02-26T10:31:53;99322.25;;;17.20;57.17
85922;BME280;76459;41.484;22.090;2024-02-26T10:34:19;99313.56;;;17.34;55.47
85922;BME280;76459;41.484;22.090;2024-02-26T10:36:45;99318.81;;;17.48;55.43
85922;BME280;76459;41.484;22.090;2024-02-26T10:39:12;99321.59;;;17.60;54.69
85922;BME280;76459;41.484;22.090;2024-02-26T10:41:40;99314.19;;;17.76;53.71
85922;BME280;76459;41.484;22.090;2024-02-26T10:44:06;99318.38;;;17.82;53.23
85922;BME280;76459;41.484;22.090;2024-02-26T10:46:34;99310.63;;;17.88;53.27
85922;BME280;76459;41.484;22.090;2024-02-26T10:49:02;99309.56;;;17.93;51.74
85922;BME280;76459;41.484;22.090;2024-02-26T10:51:31;99303.97;;;17.93;52.83
85922;BME280;76459;41.484;22.090;2024-02-26T10:53:59;99300.94;;;17.98;52.43
85922;BME280;76459;41.484;22.090;2024-02-26T10:56:33;99302.72;;;17.90;52.01
85922;BME280;76459;41.484;22.090;2024-02-26T10:59:00;99296.88;;;17.95;51.67
85922;BME280;76459;41.484;22.090;2024-02-26T11:01:27;99298.16;;;18.10;51.57
85922;BME280;76459;41.484;22.090;2024-02-26T11:03:55;99297.41;;;18.25;50.42
85922;BME280;76459;41.484;22.090;2024-02-26T11:06:21;99282.41;;;18.42;49.90
85922;BME280;76459;41.484;22.090;2024-02-26T11:08:50;99289.09;;;18.53;49.36
85922;BME280;76459;41.484;22.090;2024-02-26T11:11:17;99284.47;;;18.45;49.37
85922;BME280;76459;41.484;22.090;2024-02-26T11:13:47;99292.03;;;18.45;51.17
85922;BME280;76459;41.484;22.090;2024-02-26T11:16:21;99280.41;;;18.42;49.29
85922;BME280;76459;41.484;22.090;2024-02-26T11:18:48;99282.25;;;18.51;46.80
85922;BME280;76459;41.484;22.090;2024-02-26T11:21:17;99282.31;;;18.26;45.83
85922;BME280;76459;41.484;22.090;2024-02-26T11:23:46;99283.25;;;18.18;45.50
85922;BME280;76459;41.484;22.090;2024-02-26T11:26:13;99279.59;;;18.02;45.97
85922;BME280;76459;41.484;22.090;2024-02-26T11:28:41;99278.19;;;17.96;46.81
85922;BME280;76459;41.484;22.090;2024-02-26T11:31:08;99284.22;;;18.10;46.47
85922;BME280;76459;41.484;22.090;2024-02-26T11:33:35;99275.72;;;18.06;45.70
85922;BME280;76459;41.484;22.090;2024-02-26T11:36:07;99276.91;;;17.93;46.63
85922;BME280;76459;41.484;22.090;2024-02-26T11:38:33;99273.22;;;17.89;46.47
85922;BME280;76459;41.484;22.090;2024-02-26T11:40:59;99280.91;;;17.80;47.34
85922;BME280;76459;41.484;22.090;2024-02-26T11:44:01;99274.88;;;17.78;47.75
85922;BME280;76459;41.484;22.090;2024-02-26T11:46:27;99272.53;;;17.80;48.12
85922;BME280;76459;41.484;22.090;2024-02-26T11:48:57;99267.41;;;17.82;47.39
85922;BME280;76459;41.484;22.090;2024-02-26T11:51:27;99281.94;;;17.75;47.43
85922;BME280;76459;41.484;22.090;2024-02-26T11:53:53;99272.41;;;17.76;47.41
85922;BME280;76459;41.484;22.090;2024-02-26T11:56:21;99266.28;;;17.71;46.60
85922;BME280;76459;41.484;22.090;2024-02-26T11:59:37;99271.13;;;17.74;44.97
85922;BME280;76459;41.484;22.090;2024-02-26T12:02:03;99268.09;;;17.67;44.01
85922;BME280;76459;41.484;22.090;2024-02-26T12:04:30;99268.09;;;17.67;44.52
85922;BME280;76459;41.484;22.090;2024-02-26T12:07:05;99271.69;;;17.67;46.24
85922;BME280;76459;41.484;22.090;2024-02-26T12:09:48;99268.44;;;17.77;46.38
85922;BME280;76459;41.484;22.090;2024-02-26T12:12:18;99271.81;;;17.83;45.66
85922;BME280;76459;41.484;22.090;2024-02-26T12:14:52;99278.09;;;17.80;42.07
85922;BME280;76459;41.484;22.090;2024-02-26T12:17:21;99268.13;;;17.79;42.66
85922;BME280;76459;41.484;22.090;2024-02-26T12:19:46;99264.63;;;17.82;42.28
85922;BME280;76459;41.484;22.090;2024-02-26T12:22:13;99256.63;;;17.80;42.25
85922;BME280;76459;41.484;22.090;2024-02-26T12:24:40;99249.63;;;17.87;42.69
85922;BME280;76459;41.484;22.090;2024-02-26T12:27:05;99260.56;;;17.92;42.12
85922;BME280;76459;41.484;22.090;2024-02-26T12:29:31;99255.44;;;17.94;41.34
85922;BME280;76459;41.484;22.090;2024-02-26T12:31:57;99255.91;;;17.96;42.17
85922;BME280;76459;41.484;22.090;2024-02-26T12:34:23;99259.34;;;18.05;40.28
85922;BME280;76459;41.484;22.090;2024-02-26T12:36:49;99262.75;;;17.98;39.91
85922;BME280;76459;41.484;22.090;2024-02-26T12:39:16;99257.19;;;17.86;41.41
85922;BME280;76459;41.484;22.090;2024-02-26T12:41:42;99251.16;;;17.84;41.64
85922;BME280;76459;41.484;22.090;2024-02-26T12:44:16;99261.13;;;17.85;41.77
85922;BME280;76459;41.484;22.090;2024-02-26T12:46:41;99252.91;;;17.76;41.75
85922;BME280;76459;41.484;22.090;2024-02-26T12:49:08;99256.63;;;17.68;41.93